Time;durP1;ratioP1;P1;durP2;ratioP2;P2;SDS_P1;SDS_P2;PMS_P1;PMS_P2;Temp;Humidity;BMP_temperature;BMP_pressure;BME280_temperature;BME280_humidity;BME280_pressure;Samples;Min_cycle;Max_cycle;Signal;HPM_P1;HPM_P2
2023/04/10 00:02:09;;;;;;;54.88;30.25;;;6.70;99.90;;;;;;5069227;28;20044;-87
2023/04/10 00:04:35;;;;;;;59.58;31.95;;;6.40;99.90;;;;;;5048214;28;20055;-87
2023/04/10 00:07:00;;;;;;;57.03;30.98;;;6.70;99.90;;;;;;5039876;28;20097;-88
2023/04/10 00:09:27;;;;;;;59.05;32.20;;;6.80;99.90;;;;;;5074137;28;20040;-88
2023/04/10 00:11:53;;;;;;;62.20;33.80;;;6.60;99.90;;;;;;5070086;28;20050;-87
2023/04/10 00:14:22;;;;;;;52.40;30.45;;;6.80;99.90;;;;;;5088820;28;20052;-88
2023/04/10 00:16:50;;;;;;;57.33;32.97;;;6.50;99.90;;;;;;5054559;28;20085;-87
2023/04/10 00:19:17;;;;;;;56.15;33.00;;;6.40;99.90;;;;;;5098784;28;20078;-89
2023/04/10 00:21:43;;;;;;;58.70;33.40;;;6.50;99.90;;;;;;5071808;28;20069;-88
2023/04/10 00:24:08;;;;;;;61.42;33.30;;;6.70;99.90;;;;;;5076297;28;20060;-88
2023/04/10 00:26:35;;;;;;;59.20;32.78;;;6.60;99.90;;;;;;5076003;28;20614;-88
2023/04/10 00:29:01;;;;;;;55.70;32.65;;;6.70;99.90;;;;;;5076803;28;20078;-87
2023/04/10 00:31:27;;;;;;;55.08;31.88;;;6.10;99.90;;;;;;5071758;28;20040;-88
2023/04/10 00:33:53;;;;;;;57.90;32.67;;;6.90;99.90;;;;;;5039142;28;20505;-88
2023/04/10 00:36:19;;;;;;;58.10;32.75;;;6.40;99.90;;;;;;5049776;28;20059;-88
2023/04/10 00:38:45;;;;;;;54.17;32.33;;;6.30;99.90;;;;;;5057028;28;20489;-88
2023/04/10 00:41:11;;;;;;;58.45;34.05;;;6.00;99.90;;;;;;5072250;28;20044;-88
2023/04/10 00:43:36;;;;;;;61.38;33.13;;;6.10;99.90;;;;;;5059165;28;20040;-88
2023/04/10 00:46:04;;;;;;;59.25;33.45;;;6.00;99.90;;;;;;5038912;28;20036;-88
2023/04/10 00:48:30;;;;;;;62.15;33.85;;;5.80;99.90;;;;;;5055190;28;20056;-87
2023/04/10 00:50:56;;;;;;;63.22;34.33;;;6.00;99.90;;;;;;5035693;28;20043;-88
2023/04/10 00:53:22;;;;;;;58.90;34.53;;;5.70;99.90;;;;;;5087324;28;20082;-87
2023/04/10 00:55:49;;;;;;;63.15;35.85;;;5.80;99.90;;;;;;5058422;28;20120;-88
2023/04/10 00:58:15;;;;;;;65.75;35.42;;;6.40;99.90;;;;;;5036683;28;20052;-87
2023/04/10 01:00:40;;;;;;;62.33;34.20;;;5.50;99.90;;;;;;5084482;28;20168;-88
2023/04/10 01:03:11;;;;;;;62.13;34.83;;;5.70;99.90;;;;;;5035574;28;20041;-88
2023/04/10 01:05:57;;;;;;;62.13;35.53;;;6.10;99.90;;;;;;5070917;28;20040;-87
2023/04/10 01:08:38;;;;;;;63.10;34.45;;;5.30;99.90;;;;;;5063712;28;20060;-87
2023/04/10 01:11:38;;;;;;;65.70;35.88;;;5.20;99.90;;;;;;5053491;28;20070;-87
2023/04/10 01:14:27;;;;;;;62.15;33.85;;;5.40;99.90;;;;;;5053828;28;20076;-88
2023/04/10 01:17:00;;;;;;;62.42;35.58;;;5.20;99.90;;;;;;5080954;28;20052;-88
2023/04/10 01:20:05;;;;;;;66.80;37.35;;;5.60;99.90;;;;;;5062193;28;20044;-87
2023/04/10 01:22:45;;;;;;;66.70;36.83;;;5.30;99.90;;;;;;5071637;28;20116;-88
2023/04/10 01:25:37;;;;;;;68.72;37.33;;;5.30;99.90;;;;;;5072983;28;20135;-89
2023/04/10 01:28:17;;;;;;;64.38;37.15;;;5.20;99.90;;;;;;5084961;28;20036;-87
2023/04/10 01:30:48;;;;;;;68.50;38.85;;;5.40;99.90;;;;;;5067185;28;20137;-88
2023/04/10 01:33:19;;;;;;;67.57;38.42;;;5.40;99.90;;;;;;5075635;28;20146;-89
2023/04/10 01:35:49;;;;;;;70.88;39.25;;;5.40;99.90;;;;;;5049364;28;20059;-88
2023/04/10 01:38:20;;;;;;;70.20;37.78;;;5.40;99.90;;;;;;5090095;28;20056;-88
2023/04/10 01:40:52;;;;;;;70.82;38.22;;;5.50;99.90;;;;;;5058384;28;20052;-88
2023/04/10 01:43:19;;;;;;;70.38;39.63;;;5.90;99.90;;;;;;5058643;28;20489;-88
2023/04/10 01:45:46;;;;;;;72.07;39.17;;;5.50;99.90;;;;;;5059444;28;20056;-87
2023/04/10 01:48:12;;;;;;;70.50;39.08;;;5.80;99.90;;;;;;5053906;28;20124;-88
2023/04/10 01:50:40;;;;;;;70.63;40.58;;;5.50;99.90;;;;;;5054222;28;20044;-88
2023/04/10 01:53:06;;;;;;;71.30;40.58;;;5.40;99.90;;;;;;5077982;28;20048;-88
2023/04/10 01:55:33;;;;;;;74.75;39.70;;;5.40;99.90;;;;;;5059362;28;20052;-88
2023/04/10 01:58:00;;;;;;;68.60;38.83;;;5.50;99.90;;;;;;5076828;28;20032;-87
2023/04/10 02:00:26;;;;;;;72.97;40.60;;;5.40;99.90;;;;;;5074423;28;20048;-87
2023/04/10 02:02:52;;;;;;;71.00;40.42;;;5.40;99.90;;;;;;5075520;28;20090;-87
2023/04/10 02:05:18;;;;;;;70.60;39.97;;;5.50;99.90;;;;;;5058519;28;20052;-88
2023/04/10 02:08:30;;;;;;;70.72;39.55;;;5.50;99.90;;;;;;5058234;28;20523;-87
2023/04/10 02:11:20;;;;;;;71.97;39.47;;;5.00;99.90;;;;;;5051293;28;20493;-88
2023/04/10 02:13:49;;;;;;;71.30;39.63;;;5.60;99.90;;;;;;5075120;28;20059;-87
2023/04/10 02:16:18;;;;;;;76.03;41.25;;;5.50;99.90;;;;;;5059217;28;20048;-88
2023/04/10 02:18:46;;;;;;;74.53;40.83;;;5.70;99.90;;;;;;5074102;28;20040;-87
2023/04/10 02:21:12;;;;;;;70.20;38.88;;;5.70;99.90;;;;;;5039736;28;20516;-88
2023/04/10 02:23:38;;;;;;;70.07;39.75;;;6.00;99.90;;;;;;5041126;28;20048;-87
2023/04/10 02:26:08;;;;;;;65.68;39.55;;;5.90;99.90;;;;;;5073885;28;20048;-87
2023/04/10 02:28:36;;;;;;;72.05;39.58;;;5.00;99.90;;;;;;5071046;28;20097;-88
2023/04/10 02:31:01;;;;;;;70.45;39.92;;;5.50;99.90;;;;;;5057052;28;20043;-87
2023/04/10 02:33:27;;;;;;;76.65;42.05;;;5.30;99.90;;;;;;5040516;28;20047;-87
2023/04/10 02:35:53;;;;;;;70.15;39.13;;;5.50;99.90;;;;;;5085385;28;20044;-87
2023/04/10 02:38:18;;;;;;;77.00;40.17;;;6.10;99.90;;;;;;5047115;28;20501;-87
2023/04/10 02:40:45;;;;;;;68.53;39.03;;;5.50;99.90;;;;;;5051783;28;20044;-88
2023/04/10 02:43:11;;;;;;;69.82;38.25;;;5.80;99.90;;;;;;5037288;28;20040;-86
2023/04/10 02:45:36;;;;;;;70.30;40.20;;;5.10;99.90;;;;;;5058185;28;20135;-86
2023/04/10 02:48:04;;;;;;;69.07;38.50;;;5.70;99.90;;;;;;5062547;28;20044;-87
2023/04/10 02:50:31;;;;;;;65.63;38.25;;;5.50;99.90;;;;;;5060039;28;20039;-87
2023/04/10 02:52:57;;;;;;;72.45;37.95;;;5.70;99.90;;;;;;5073888;28;20476;-87
2023/04/10 02:55:22;;;;;;;68.72;38.13;;;6.20;99.90;;;;;;5066336;28;20079;-88
2023/04/10 02:57:48;;;;;;;73.00;39.85;;;5.50;99.90;;;;;;5072451;28;20076;-87
2023/04/10 03:00:14;;;;;;;67.88;38.55;;;5.80;99.90;;;;;;5066894;28;20040;-88
2023/04/10 03:02:40;;;;;;;66.60;38.67;;;5.60;99.90;;;;;;5066630;28;20626;-88
2023/04/10 03:05:07;;;;;;;69.28;38.42;;;5.30;99.90;;;;;;5045616;28;20061;-87
2023/04/10 03:07:33;;;;;;;67.95;38.95;;;5.20;99.90;;;;;;5057345;28;20447;-88
2023/04/10 03:09:59;;;;;;;73.93;40.05;;;5.60;99.90;;;;;;5074880;28;20043;-87
2023/04/10 03:12:25;;;;;;;69.32;40.58;;;5.80;99.90;;;;;;5057660;28;20083;-87
2023/04/10 03:14:51;;;;;;;69.78;38.97;;;6.00;99.90;;;;;;5068887;28;20068;-87
2023/04/10 03:17:16;;;;;;;74.75;42.53;;;5.80;99.90;;;;;;5072552;28;20512;-88
2023/04/10 03:19:42;;;;;;;79.28;41.70;;;5.40;99.90;;;;;;5055518;28;20040;-87
2023/04/10 03:22:09;;;;;;;76.22;41.88;;;6.10;99.90;;;;;;5040969;28;20480;-86
2023/04/10 03:24:37;;;;;;;74.22;40.35;;;5.80;99.90;;;;;;5057737;28;20098;-88
2023/04/10 03:27:02;;;;;;;75.80;41.65;;;5.50;99.90;;;;;;5057669;28;20032;-87
2023/04/10 03:29:28;;;;;;;74.82;41.35;;;5.80;99.90;;;;;;5055915;28;20538;-88
2023/04/10 03:31:54;;;;;;;76.18;42.42;;;6.20;99.90;;;;;;5049739;28;20432;-87
2023/04/10 03:34:20;;;;;;;76.25;42.22;;;6.00;99.90;;;;;;5059781;28;20059;-89
2023/04/10 03:36:46;;;;;;;77.68;43.17;;;6.00;99.90;;;;;;5037771;28;20048;-88
2023/04/10 03:39:12;;;;;;;77.43;44.17;;;5.70;99.90;;;;;;5037605;28;20048;-88
2023/04/10 03:41:38;;;;;;;82.45;44.63;;;5.90;99.90;;;;;;5087919;28;20040;-89
2023/04/10 03:44:03;;;;;;;79.38;44.15;;;5.90;99.90;;;;;;5056182;28;20454;-88
2023/04/10 03:46:29;;;;;;;80.40;44.13;;;5.70;99.90;;;;;;5072309;28;20036;-88
2023/04/10 03:48:55;;;;;;;83.57;44.83;;;5.80;99.90;;;;;;5056232;28;20131;-88
2023/04/10 03:51:23;;;;;;;85.60;45.13;;;6.00;99.90;;;;;;5069910;28;20044;-89
2023/04/10 03:53:49;;;;;;;86.72;45.35;;;5.70;99.90;;;;;;5034537;28;20036;-87
2023/04/10 03:56:15;;;;;;;84.00;43.92;;;5.90;99.90;;;;;;5073398;28;20051;-87
2023/04/10 03:58:41;;;;;;;84.63;45.75;;;5.50;99.90;;;;;;5073407;28;20048;-88
2023/04/10 04:01:07;;;;;;;82.78;45.45;;;6.10;99.90;;;;;;5057096;28;20078;-88
2023/04/10 04:03:32;;;;;;;88.30;47.15;;;5.50;99.90;;;;;;5042311;28;20044;-88
2023/04/10 04:05:58;;;;;;;88.22;45.97;;;5.90;99.90;;;;;;5041047;28;20047;-87
2023/04/10 04:08:24;;;;;;;84.32;46.28;;;5.90;99.90;;;;;;5056898;28;20060;-88
2023/04/10 04:10:50;;;;;;;86.10;45.60;;;5.50;99.90;;;;;;5040585;28;20051;-88
2023/04/10 04:13:15;;;;;;;85.43;45.05;;;5.90;99.90;;;;;;5072651;28;20067;-88
2023/04/10 04:15:41;;;;;;;84.20;46.22;;;6.00;99.90;;;;;;5053609;28;20137;-88
2023/04/10 04:18:08;;;;;;;88.25;47.05;;;6.20;99.90;;;;;;5039042;28;20859;-88
2023/04/10 04:20:34;;;;;;;84.00;47.03;;;6.30;99.90;;;;;;5054204;28;20044;-88
2023/04/10 04:22:59;;;;;;;85.65;46.88;;;6.20;99.90;;;;;;5089379;28;20421;-87
2023/04/10 04:25:26;;;;;;;80.32;45.10;;;6.60;99.90;;;;;;5056316;28;20055;-88
2023/04/10 04:27:51;;;;;;;81.22;45.58;;;6.80;99.90;;;;;;5039699;28;20077;-88
2023/04/10 04:30:17;;;;;;;82.03;44.92;;;6.60;99.90;;;;;;5073211;28;20044;-87
2023/04/10 04:32:43;;;;;;;81.25;44.42;;;6.80;99.90;;;;;;5047327;28;20045;-88
2023/04/10 04:35:09;;;;;;;81.65;45.08;;;6.60;99.90;;;;;;5053723;28;20366;-88
2023/04/10 04:37:35;;;;;;;77.45;43.35;;;7.20;99.90;;;;;;5040269;28;20052;-88
2023/04/10 04:40:01;;;;;;;77.00;43.45;;;6.80;99.90;;;;;;5076284;28;20070;-88
2023/04/10 04:42:26;;;;;;;77.43;43.13;;;6.80;99.90;;;;;;5036054;28;20045;-89
2023/04/10 04:44:52;;;;;;;74.82;44.40;;;6.80;99.90;;;;;;5074448;28;20485;-89
2023/04/10 04:47:18;;;;;;;75.50;42.60;;;6.60;99.90;;;;;;5039777;28;20389;-88
2023/04/10 04:49:43;;;;;;;77.25;43.40;;;7.20;99.90;;;;;;5051453;28;20044;-88
2023/04/10 04:52:09;;;;;;;76.07;43.35;;;7.20;99.90;;;;;;5050182;28;20051;-89
2023/04/10 04:54:35;;;;;;;76.88;42.08;;;7.40;99.90;;;;;;5053984;28;20059;-89
2023/04/10 04:57:01;;;;;;;77.32;42.17;;;6.70;99.90;;;;;;5045576;28;20048;-89
2023/04/10 04:59:26;;;;;;;78.97;44.00;;;6.90;99.90;;;;;;5051695;28;20036;-89
2023/04/10 05:01:52;;;;;;;74.47;43.25;;;7.00;99.90;;;;;;5063392;28;20040;-88
2023/04/10 05:04:19;;;;;;;79.75;43.47;;;7.20;99.90;;;;;;5065950;28;20047;-88
2023/04/10 05:06:45;;;;;;;77.32;43.35;;;7.10;99.90;;;;;;5075355;28;20627;-88
2023/04/10 05:09:11;;;;;;;71.90;41.17;;;7.60;99.90;;;;;;5070138;28;20043;-88
2023/04/10 05:11:36;;;;;;;74.80;42.15;;;7.20;99.90;;;;;;5037762;28;20047;-88
2023/04/10 05:14:02;;;;;;;76.28;41.65;;;7.10;99.90;;;;;;5070331;28;20135;-89
2023/04/10 05:16:28;;;;;;;73.10;41.10;;;7.40;99.90;;;;;;5053071;28;20051;-88
2023/04/10 05:18:54;;;;;;;73.07;42.20;;;6.70;99.90;;;;;;5088844;28;20076;-89
2023/04/10 05:21:20;;;;;;;72.70;41.92;;;6.90;99.90;;;;;;5069571;28;20036;-90
2023/04/10 05:23:46;;;;;;;74.15;41.17;;;6.90;99.90;;;;;;5077022;28;20047;-89
2023/04/10 05:26:11;;;;;;;69.85;40.55;;;7.20;99.90;;;;;;5037342;28;20070;-90
2023/04/10 05:28:37;;;;;;;73.03;40.90;;;7.30;99.90;;;;;;5042512;28;20070;-89
2023/04/10 05:31:03;;;;;;;70.03;39.63;;;7.10;99.90;;;;;;5040532;28;20465;-90
2023/04/10 05:33:28;;;;;;;69.18;40.28;;;7.00;99.90;;;;;;5063407;28;20044;-90
2023/04/10 05:35:55;;;;;;;64.88;38.95;;;7.20;99.90;;;;;;5040217;28;20063;-90
2023/04/10 05:38:21;;;;;;;65.07;38.40;;;7.30;99.90;;;;;;5036737;28;20048;-88
2023/04/10 05:40:46;;;;;;;63.83;38.22;;;7.40;99.90;;;;;;5041721;28;20050;-90
2023/04/10 05:43:12;;;;;;;64.80;37.30;;;7.00;99.90;;;;;;5050245;28;20080;-89
2023/04/10 05:45:39;;;;;;;65.30;36.45;;;7.20;99.90;;;;;;5047434;28;20052;-92
2023/04/10 05:48:05;;;;;;;63.90;34.50;;;7.10;99.90;;;;;;5056701;28;20048;-88
2023/04/10 05:50:31;;;;;;;60.47;34.53;;;7.30;99.90;;;;;;5073678;28;20138;-89
2023/04/10 05:52:56;;;;;;;61.63;35.80;;;7.30;99.90;;;;;;5066099;28;20477;-88
2023/04/10 05:55:22;;;;;;;65.93;36.78;;;8.10;99.90;;;;;;5039294;28;20048;-89
2023/04/10 05:57:50;;;;;;;62.33;35.97;;;7.90;99.90;;;;;;5071310;28;20083;-88
2023/04/10 06:00:16;;;;;;;65.97;36.58;;;8.00;99.90;;;;;;5054103;28;20047;-87
2023/04/10 06:02:42;;;;;;;60.67;35.25;;;7.40;99.90;;;;;;5052907;28;20044;-85
2023/04/10 06:05:08;;;;;;;63.17;36.72;;;8.00;99.90;;;;;;5040575;28;20039;-89
2023/04/10 06:07:34;;;;;;;59.47;35.10;;;7.40;99.90;;;;;;5056914;28;20051;-88
2023/04/10 06:09:59;;;;;;;55.28;32.88;;;7.60;99.90;;;;;;5062669;28;20094;-86
2023/04/10 06:12:25;;;;;;;55.00;33.33;;;7.70;99.90;;;;;;5057703;28;20058;-86
2023/04/10 06:14:51;;;;;;;60.45;34.80;;;7.80;99.90;;;;;;5057375;28;20125;-87
2023/04/10 06:17:16;;;;;;;59.05;34.03;;;7.90;99.90;;;;;;5042133;28;20083;-86
2023/04/10 06:19:42;;;;;;;58.03;34.22;;;8.10;99.90;;;;;;5075308;28;20078;-87
2023/04/10 06:22:08;;;;;;;59.78;34.55;;;8.60;99.90;;;;;;5044895;28;20048;-87
2023/04/10 06:24:33;;;;;;;59.45;33.15;;;8.40;99.90;;;;;;5075610;28;20061;-84
2023/04/10 06:26:59;;;;;;;57.58;33.33;;;8.50;99.90;;;;;;5058607;28;20827;-86
2023/04/10 06:29:25;;;;;;;55.45;32.72;;;8.50;99.90;;;;;;5056301;28;20083;-87
2023/04/10 06:31:51;;;;;;;51.28;30.25;;;8.60;99.90;;;;;;5072692;28;20076;-86
2023/04/10 06:34:16;;;;;;;52.05;30.95;;;8.60;99.90;;;;;;5072095;28;20045;-88
2023/04/10 06:36:42;;;;;;;51.88;31.27;;;8.50;99.90;;;;;;5055442;28;20044;-86
2023/04/10 06:39:08;;;;;;;54.03;31.20;;;8.70;99.90;;;;;;5085765;28;20052;-86
2023/04/10 06:41:33;;;;;;;54.97;32.25;;;9.10;99.90;;;;;;5049928;28;20153;-85
2023/04/10 06:43:59;;;;;;;58.85;33.90;;;8.80;99.90;;;;;;5062288;28;20173;-85
2023/04/10 06:46:26;;;;;;;56.22;33.30;;;8.90;99.90;;;;;;5060303;28;20044;-86
2023/04/10 06:48:52;;;;;;;56.30;33.63;;;9.00;99.90;;;;;;5073554;28;20052;-86
2023/04/10 06:51:17;;;;;;;60.67;34.65;;;9.00;99.90;;;;;;5054429;28;20040;-86
2023/04/10 06:53:43;;;;;;;61.25;35.97;;;9.00;99.90;;;;;;5080634;28;20098;-86
2023/04/10 06:56:09;;;;;;;57.22;34.03;;;9.10;99.90;;;;;;5071476;28;20177;-85
2023/04/10 06:58:35;;;;;;;57.33;32.70;;;9.20;99.90;;;;;;5058829;28;20051;-84
2023/04/10 07:01:04;;;;;;;53.63;31.80;;;9.20;99.90;;;;;;5054831;28;20392;-86
2023/04/10 07:03:31;;;;;;;51.65;30.48;;;9.30;99.90;;;;;;5074476;28;20043;-85
2023/04/10 07:05:57;;;;;;;48.72;28.05;;;9.30;99.90;;;;;;5046937;28;20059;-85
2023/04/10 07:08:23;;;;;;;52.22;28.80;;;9.30;99.90;;;;;;5069438;28;20058;-85
2023/04/10 07:10:48;;;;;;;54.47;29.88;;;9.30;99.90;;;;;;5070139;28;20119;-89
2023/04/10 07:13:14;;;;;;;54.20;31.08;;;9.30;99.90;;;;;;5050863;28;20085;-85
2023/04/10 07:15:40;;;;;;;50.88;29.55;;;9.20;99.90;;;;;;5065237;28;20055;-85
2023/04/10 07:18:05;;;;;;;50.55;27.88;;;9.50;99.90;;;;;;5062652;28;20076;-84
2023/04/10 07:20:31;;;;;;;48.78;27.02;;;9.40;99.90;;;;;;5069271;28;20043;-85
2023/04/10 07:22:57;;;;;;;42.55;25.48;;;9.60;99.90;;;;;;5056382;28;20048;-86
2023/04/10 07:25:23;;;;;;;47.10;25.60;;;9.70;99.90;;;;;;5055740;28;20142;-85
2023/04/10 07:27:49;;;;;;;44.80;25.67;;;9.90;94.90;;;;;;5073222;28;20093;-85
2023/04/10 07:30:14;;;;;;;46.40;26.85;;;9.80;96.70;;;;;;5039617;28;20152;-84
2023/04/10 07:32:40;;;;;;;45.72;27.25;;;9.80;96.60;;;;;;5090582;28;20048;-85
2023/04/10 07:35:07;;;;;;;45.88;27.15;;;9.90;93.60;;;;;;5072681;28;20051;-86
2023/04/10 07:37:32;;;;;;;48.08;28.02;;;9.70;92.20;;;;;;5057359;28;20051;-85
2023/04/10 07:39:59;;;;;;;47.28;27.35;;;9.90;92.80;;;;;;5038876;28;20036;-86
2023/04/10 07:42:25;;;;;;;51.85;28.95;;;10.00;92.20;;;;;;5043420;28;20501;-86
2023/04/10 07:44:51;;;;;;;49.20;29.27;;;10.10;91.90;;;;;;5073347;28;20051;-86
2023/04/10 07:47:16;;;;;;;49.70;28.50;;;10.10;90.30;;;;;;5068482;28;20482;-86
2023/04/10 07:49:42;;;;;;;50.20;28.63;;;10.00;89.60;;;;;;5047040;28;20048;-85
2023/04/10 07:52:08;;;;;;;51.60;29.30;;;10.00;88.00;;;;;;5042376;28;20047;-85
2023/04/10 07:54:34;;;;;;;50.20;30.20;;;10.10;85.30;;;;;;5089745;28;20071;-85
2023/04/10 07:57:00;;;;;;;50.13;29.73;;;10.30;88.30;;;;;;5042288;28;20047;-86
2023/04/10 07:59:27;;;;;;;47.40;28.40;;;10.40;82.30;;;;;;5052806;28;20036;-85
2023/04/10 08:01:53;;;;;;;50.30;30.80;;;10.50;68.40;;;;;;5040770;28;20047;-85
2023/04/10 08:04:19;;;;;;;47.80;28.10;;;11.00;64.30;;;;;;5056081;28;20051;-84
2023/04/10 08:06:44;;;;;;;46.83;27.30;;;10.70;62.70;;;;;;5074270;28;20089;-84
2023/04/10 08:09:10;;;;;;;45.55;28.05;;;11.00;52.80;;;;;;5079778;28;20097;-84
2023/04/10 08:11:36;;;;;;;41.85;25.70;;;11.00;40.30;;;;;;5055469;28;20090;-85
2023/04/10 08:14:04;;;;;;;40.45;25.30;;;11.10;41.70;;;;;;5073985;28;20077;-84
2023/04/10 08:16:32;;;;;;;41.08;25.55;;;11.50;28.80;;;;;;5074316;28;20169;-84
2023/04/10 08:18:59;;;;;;;41.33;24.50;;;11.60;23.10;;;;;;5073693;28;20068;-87
2023/04/10 08:21:26;;;;;;;35.67;22.20;;;11.90;16.90;;;;;;5074166;28;20487;-85
2023/04/10 08:23:53;;;;;;;34.28;21.45;;;12.10;3.40;;;;;;5056798;28;20080;-85
2023/04/10 08:26:20;;;;;;;39.47;21.65;;;12.30;1.00;;;;;;5073663;28;20048;-85
2023/04/10 08:28:50;;;;;;;35.70;20.33;;;12.50;1.00;;;;;;5053956;28;20056;-84
2023/04/10 08:31:21;;;;;;;34.80;19.23;;;12.60;1.00;;;;;;5057048;28;20417;-84
2023/04/10 08:33:47;;;;;;;32.67;19.73;;;12.80;1.00;;;;;;5077327;28;20059;-83
2023/04/10 08:36:17;;;;;;;32.10;18.75;;;12.80;1.00;;;;;;5089902;28;20515;-87
2023/04/10 08:38:43;;;;;;;33.03;19.73;;;13.00;1.00;;;;;;5045087;28;20063;-84
2023/04/10 08:41:11;;;;;;;29.60;19.05;;;13.00;1.00;;;;;;5055572;28;20036;-85
2023/04/10 08:43:37;;;;;;;31.95;19.88;;;13.10;1.00;;;;;;5065954;28;20048;-85
2023/04/10 08:46:03;;;;;;;30.13;18.73;;;12.90;1.00;;;;;;5060787;28;20068;-87
2023/04/10 08:48:44;;;;;;;29.27;18.90;;;13.30;1.00;;;;;;5085742;28;20044;-84
2023/04/10 08:51:16;;;;;;;27.92;17.48;;;13.40;1.00;;;;;;5075868;28;20426;-85
2023/04/10 08:53:43;;;;;;;28.48;16.80;;;13.70;1.00;;;;;;5078008;28;20044;-85
2023/04/10 08:56:14;;;;;;;28.13;17.10;;;13.60;1.00;;;;;;5075068;28;20459;-84
2023/04/10 08:58:41;;;;;;;26.77;16.73;;;13.60;1.00;;;;;;5057240;28;20096;-84
2023/04/10 09:01:08;;;;;;;27.73;17.65;;;13.70;1.00;;;;;;5073426;28;20052;-85
2023/04/10 09:03:34;;;;;;;24.48;16.00;;;13.80;1.00;;;;;;5072617;28;20546;-84
2023/04/10 09:06:03;;;;;;;25.20;16.38;;;13.80;1.00;;;;;;5056900;28;20044;-84
2023/04/10 09:08:30;;;;;;;27.45;16.35;;;14.10;1.00;;;;;;5073278;28;20056;-84
2023/04/10 09:10:55;;;;;;;23.10;15.07;;;14.20;1.00;;;;;;5073869;28;20050;-84
2023/04/10 09:13:39;;;;;;;26.98;15.60;;;14.40;1.00;;;;;;5089509;28;20127;-84
2023/04/10 09:16:06;;;;;;;27.67;16.70;;;14.50;1.00;;;;;;5057151;28;20400;-83
2023/04/10 09:18:50;;;;;;;27.52;16.30;;;14.70;1.00;;;;;;5042156;28;20052;-85
2023/04/10 09:21:18;;;;;;;22.27;15.15;;;15.10;1.00;;;;;;5071379;28;20043;-85
2023/04/10 09:23:45;;;;;;;22.75;14.65;;;15.40;1.00;;;;;;5059900;28;20043;-84
2023/04/10 09:26:27;;;;;;;23.42;14.18;;;15.80;1.00;;;;;;5056045;28;20493;-84
2023/04/10 09:28:57;;;;;;;21.35;14.05;;;16.00;1.00;;;;;;5089969;28;20036;-84
2023/04/10 09:31:31;;;;;;;21.55;13.88;;;16.60;1.00;;;;;;5059081;28;20043;-84
2023/04/10 09:34:12;;;;;;;21.42;12.85;;;16.70;1.00;;;;;;5090549;28;20097;-86
2023/04/10 09:36:42;;;;;;;20.70;13.95;;;16.90;1.00;;;;;;5072518;28;20046;-85
2023/04/10 09:39:09;;;;;;;22.38;14.93;;;17.00;1.00;;;;;;5044752;28;20044;-85
2023/04/10 09:41:46;;;;;;;19.27;13.23;;;17.60;1.00;;;;;;5065524;28;20056;-85
2023/04/10 09:44:12;;;;;;;20.13;14.23;;;18.10;1.00;;;;;;5045680;28;20135;-88
2023/04/10 09:46:38;;;;;;;19.63;13.77;;;18.10;1.00;;;;;;5071628;28;20139;-85
2023/04/10 09:49:06;;;;;;;18.40;13.45;;;18.70;1.00;;;;;;5055149;28;20516;-87
2023/04/10 09:51:33;;;;;;;20.15;13.85;;;18.60;1.00;;;;;;5069416;28;20044;-84
2023/04/10 09:54:00;;;;;;;21.55;14.00;;;18.80;1.00;;;;;;5093418;28;20497;-85
2023/04/10 09:56:27;;;;;;;18.80;13.70;;;18.60;1.00;;;;;;5076676;28;20127;-85
2023/04/10 09:58:56;;;;;;;19.25;13.90;;;19.00;1.00;;;;;;5069152;28;20402;-84
2023/04/10 10:01:24;;;;;;;17.73;13.32;;;19.00;1.00;;;;;;5069499;28;20087;-84
2023/04/10 10:03:50;;;;;;;19.52;13.20;;;19.10;1.00;;;;;;5076672;28;20066;-85
2023/04/10 10:06:16;;;;;;;20.60;13.73;;;19.10;1.00;;;;;;5058498;28;20508;-85
2023/04/10 10:08:43;;;;;;;19.13;13.93;;;19.50;1.00;;;;;;5081718;28;20047;-84
2023/04/10 10:11:11;;;;;;;16.00;11.30;;;19.50;1.00;;;;;;5070138;28;20393;-84
2023/04/10 10:13:41;;;;;;;14.75;10.05;;;19.60;1.00;;;;;;5079728;28;20052;-87
2023/04/10 10:16:22;;;;;;;14.57;10.77;;;19.40;1.00;;;;;;5081927;28;20039;-85
2023/04/10 10:19:00;;;;;;;12.77;9.80;;;19.20;1.00;;;;;;5074892;28;20104;-82
2023/04/10 10:21:29;;;;;;;13.38;9.80;;;19.40;1.00;;;;;;5058159;28;20051;-84
2023/04/10 10:23:57;;;;;;;14.07;10.30;;;20.00;1.00;;;;;;5075195;28;20040;-84
2023/04/10 10:26:24;;;;;;;13.88;9.52;;;20.40;1.00;;;;;;5075627;28;20396;-82
2023/04/10 10:28:54;;;;;;;12.93;8.90;;;20.80;1.00;;;;;;5075521;28;20075;-82
2023/04/10 10:31:23;;;;;;;12.57;9.52;;;20.60;1.00;;;;;;5092419;28;20130;-87
2023/04/10 10:33:51;;;;;;;10.82;8.13;;;20.60;1.00;;;;;;5043748;28;20045;-83
2023/04/10 10:36:19;;;;;;;10.57;7.57;;;20.10;1.00;;;;;;5086871;28;20043;-84
2023/04/10 10:39:06;;;;;;;10.70;7.85;;;20.20;1.00;;;;;;5059172;28;20095;-84
2023/04/10 10:41:41;;;;;;;9.75;7.85;;;19.80;1.00;;;;;;5066449;28;20144;-86
2023/04/10 10:44:16;;;;;;;10.02;7.32;;;19.20;1.00;;;;;;5057509;28;20378;-84
2023/04/10 10:47:06;;;;;;;12.80;7.80;;;18.80;1.00;;;;;;5092346;28;20036;-85
2023/04/10 10:49:51;;;;;;;11.55;7.38;;;18.60;1.00;;;;;;5088961;28;20040;-85
2023/04/10 10:52:37;;;;;;;9.50;6.70;;;18.40;1.00;;;;;;5075748;28;20035;-84
2023/04/10 10:55:24;;;;;;;10.15;7.32;;;18.40;1.00;;;;;;5062658;28;20055;-85
2023/04/10 10:57:52;;;;;;;9.95;7.38;;;17.80;1.00;;;;;;5069062;28;20041;-84
2023/04/10 11:00:19;;;;;;;9.20;7.32;;;18.20;1.00;;;;;;5069175;28;20040;-85
2023/04/10 11:03:05;;;;;;;8.23;6.85;;;18.20;1.00;;;;;;5061844;28;20045;-84
2023/04/10 11:05:56;;;;;;;8.43;6.55;;;17.90;1.00;;;;;;5060672;28;20055;-84
2023/04/10 11:08:47;;;;;;;9.85;6.95;;;17.50;1.00;;;;;;5059264;28;20090;-85
2023/04/10 11:11:14;;;;;;;8.45;6.68;;;17.70;1.00;;;;;;5073024;28;20058;-85
2023/04/10 11:13:56;;;;;;;8.27;6.40;;;17.60;1.00;;;;;;5064244;28;20109;-85
2023/04/10 11:16:38;;;;;;;9.85;7.03;;;17.70;1.00;;;;;;5067180;28;20104;-84
2023/04/10 11:19:11;;;;;;;10.07;6.65;;;17.80;1.00;;;;;;5042680;28;20055;-84
2023/04/10 11:22:00;;;;;;;6.85;5.60;;;17.20;1.00;;;;;;5067808;28;20047;-88
2023/04/10 11:24:25;;;;;;;8.32;5.65;;;17.70;1.00;;;;;;5064702;28;20083;-89
2023/04/10 11:26:51;;;;;;;6.93;5.55;;;17.50;1.00;;;;;;5073864;28;20674;-86
2023/04/10 11:29:17;;;;;;;6.55;5.07;;;17.60;1.00;;;;;;5065103;28;20041;-82
2023/04/10 11:32:00;;;;;;;7.75;5.22;;;17.70;1.00;;;;;;5056451;28;20044;-82
2023/04/10 11:34:32;;;;;;;7.43;5.10;;;18.30;1.00;;;;;;5061640;28;20044;-85
2023/04/10 11:37:01;;;;;;;6.32;5.07;;;18.10;1.00;;;;;;5068825;28;20385;-84
2023/04/10 11:39:28;;;;;;;8.23;5.35;;;18.10;1.00;;;;;;5051824;28;20051;-88
2023/04/10 11:41:57;;;;;;;9.85;5.00;;;17.80;1.00;;;;;;5056655;28;20048;-84
2023/04/10 11:44:31;;;;;;;6.47;4.72;;;17.90;1.00;;;;;;5055531;28;20084;-86
2023/04/10 11:46:57;;;;;;;7.57;4.80;;;17.80;1.00;;;;;;5055192;28;20063;-85
2023/04/10 11:49:25;;;;;;;5.95;4.22;;;17.60;1.00;;;;;;5059592;28;20573;-85
2023/04/10 11:51:51;;;;;;;6.10;4.30;;;17.50;1.00;;;;;;5066187;28;20481;-85
2023/04/10 11:54:24;;;;;;;5.75;4.30;;;17.50;1.00;;;;;;5073069;28;20097;-86
2023/04/10 11:57:11;;;;;;;7.47;4.10;;;17.60;1.00;;;;;;5054009;28;20621;-86
2023/04/10 11:59:37;;;;;;;4.88;3.83;;;17.90;1.00;;;;;;5037108;28;20651;-85
2023/04/10 12:02:14;;;;;;;5.15;3.70;;;17.80;1.00;;;;;;5073792;28;20048;-84
2023/04/10 12:04:44;;;;;;;6.70;4.05;;;17.90;1.00;;;;;;5069100;28;20052;-85
2023/04/10 12:07:10;;;;;;;6.75;4.05;;;18.00;1.00;;;;;;5070941;28;20048;-84
2023/04/10 12:09:36;;;;;;;5.93;3.67;;;18.40;1.00;;;;;;5050131;28;20062;-82
2023/04/10 12:12:04;;;;;;;5.85;4.00;;;19.00;1.00;;;;;;5074200;28;20048;-84
2023/04/10 12:14:38;;;;;;;5.18;3.63;;;19.50;1.00;;;;;;5054225;28;20053;-86
2023/04/10 12:17:06;;;;;;;4.45;3.55;;;20.10;1.00;;;;;;5068786;28;20048;-84
2023/04/10 12:19:33;;;;;;;4.78;3.70;;;20.30;1.00;;;;;;5065183;28;20041;-87
2023/04/10 12:22:03;;;;;;;6.72;3.72;;;20.30;1.00;;;;;;5070464;28;20488;-85
2023/04/10 12:24:47;;;;;;;4.75;3.45;;;20.40;1.00;;;;;;5073024;28;20555;-83
2023/04/10 12:27:22;;;;;;;6.32;3.30;;;20.50;1.00;;;;;;5055985;28;20036;-82
2023/04/10 12:29:49;;;;;;;4.75;3.42;;;20.60;1.00;;;;;;5073457;28;20074;-82
2023/04/10 12:32:16;;;;;;;4.68;4.03;;;21.50;1.00;;;;;;5074218;28;20401;-82
2023/04/10 12:34:48;;;;;;;4.28;3.30;;;21.80;1.00;;;;;;5073495;28;20698;-82
2023/04/10 12:37:14;;;;;;;7.75;4.30;;;22.70;1.00;;;;;;5049403;28;20127;-82
2023/04/10 12:39:40;;;;;;;4.63;3.58;;;22.40;1.00;;;;;;5069652;28;20055;-83
2023/04/10 12:42:21;;;;;;;4.47;3.25;;;21.90;1.00;;;;;;5057299;28;20043;-82
2023/04/10 12:44:59;;;;;;;5.35;3.60;;;21.10;1.00;;;;;;5056853;28;20046;-83
2023/04/10 12:47:27;;;;;;;5.45;4.22;;;20.60;1.00;;;;;;5059622;28;20397;-83
2023/04/10 12:50:07;;;;;;;10.30;4.50;;;20.40;1.00;;;;;;5069582;28;20125;-85